createdAt,value
2022-12-01T07:12:55.754Z,11.6
2022-12-01T07:15:50.946Z,11.5
2022-12-01T07:18:51.193Z,11.5
2022-12-01T07:21:51.406Z,11.6
2022-12-01T07:24:51.668Z,11.7
2022-12-01T07:27:51.873Z,8.3
2022-12-01T07:30:52.189Z,5
2022-12-01T07:33:52.362Z,1.8
2022-12-01T07:36:52.538Z,2.2
2022-12-01T07:39:52.769Z,2.6
2022-12-01T07:42:52.977Z,3.1
2022-12-01T07:45:53.217Z,3.6
2022-12-01T07:48:53.431Z,4.3
2022-12-01T07:51:53.672Z,4.8
2022-12-01T07:54:53.895Z,5.4
2022-12-01T07:57:54.141Z,6.2
2022-12-01T08:00:54.354Z,6.9
2022-12-01T08:03:54.632Z,7.8
2022-12-01T08:06:54.812Z,8.9
2022-12-01T08:09:55.053Z,9.9
2022-12-01T08:12:55.306Z,10.9
2022-12-01T08:15:55.576Z,12.2
2022-12-01T08:18:55.757Z,13.5
2022-12-01T08:21:50.985Z,14.9
2022-12-01T08:24:51.223Z,16.2
2022-12-01T08:27:51.424Z,17.6
2022-12-01T08:30:51.690Z,19
2022-12-01T08:33:51.922Z,20.4
2022-12-01T08:36:52.147Z,22
2022-12-01T08:39:52.454Z,23.5
2022-12-01T08:42:52.601Z,24.9
2022-12-01T08:45:52.852Z,26.2
2022-12-01T08:48:53.050Z,27.4
2022-12-01T08:51:53.305Z,28.4
2022-12-01T08:54:53.557Z,29.5
2022-12-01T08:57:53.715Z,30.5
2022-12-01T09:00:53.998Z,31.5
2022-12-01T09:03:54.228Z,32.3
2022-12-01T09:06:54.446Z,33.3
2022-12-01T09:09:54.692Z,34.5
2022-12-01T09:12:54.928Z,35.6
2022-12-01T09:15:55.283Z,37
2022-12-01T09:18:55.404Z,38.2
2022-12-01T09:21:55.593Z,39.4
2022-12-01T09:24:50.844Z,40.3
2022-12-01T09:27:51.050Z,41.2
2022-12-01T09:30:51.286Z,41.9
2022-12-01T09:33:51.520Z,42.5
2022-12-01T09:36:51.773Z,43
2022-12-01T09:39:52.111Z,43.1
2022-12-01T09:42:52.252Z,43.8
2022-12-01T09:45:52.454Z,44.5
2022-12-01T09:48:52.666Z,44.7
2022-12-01T09:51:52.893Z,44.6
2022-12-01T09:54:53.154Z,45.9
2022-12-01T09:57:53.383Z,48.1
2022-12-01T10:00:53.644Z,50.1
2022-12-01T10:03:53.813Z,50.1
2022-12-01T10:06:54.094Z,49.4
2022-12-01T10:09:54.264Z,48.8
2022-12-01T10:12:54.548Z,48.8
2022-12-01T10:15:54.847Z,50.2
2022-12-01T10:18:55.010Z,50
2022-12-01T10:21:55.198Z,47.7
2022-12-01T10:24:55.452Z,45.3
2022-12-01T10:27:55.694Z,45.1
2022-12-01T10:30:50.899Z,45.2
2022-12-01T10:33:51.149Z,45.3
2022-12-01T10:36:56.398Z,46.1
2022-12-01T10:39:52.043Z,46.4
2022-12-01T10:42:51.860Z,47.4
2022-12-01T10:45:52.170Z,50.6
2022-12-01T10:48:52.296Z,54.2
2022-12-01T10:51:52.554Z,57.6
2022-12-01T10:54:52.771Z,60.3
2022-12-01T10:57:52.984Z,61
2022-12-01T11:01:00.600Z,60.5
2022-12-01T11:03:53.507Z,59.3
2022-12-01T11:06:53.699Z,57.8
2022-12-01T11:09:53.903Z,54.7
2022-12-01T11:12:54.161Z,51.4
2022-12-01T11:15:54.392Z,48
2022-12-01T11:18:54.632Z,44.9
2022-12-01T11:21:54.858Z,43.4
2022-12-01T11:24:55.065Z,43.6
2022-12-01T11:27:55.341Z,44.8
2022-12-01T11:30:56.689Z,46.4
2022-12-01T11:33:55.749Z,47.6
2022-12-01T11:36:50.994Z,48.4
2022-12-01T11:39:51.660Z,48.9
2022-12-01T11:42:51.458Z,49.4
2022-12-01T11:45:51.844Z,49.8
2022-12-01T11:48:51.925Z,49.6
2022-12-01T11:51:52.163Z,49.8
2022-12-01T11:54:52.379Z,48.4
2022-12-01T11:57:52.632Z,47.9
2022-12-01T12:00:52.851Z,47.7
2022-12-01T12:03:53.099Z,47.7
2022-12-01T12:06:53.317Z,47.8
2022-12-01T12:09:53.547Z,47.8
2022-12-01T12:12:53.798Z,47
2022-12-01T12:15:54.051Z,44.8
2022-12-01T12:18:54.271Z,43.6
2022-12-01T12:21:54.502Z,41.7
2022-12-01T12:24:54.705Z,40.2
2022-12-01T12:27:54.937Z,39.4
2022-12-01T12:30:55.256Z,39.7
2022-12-01T12:33:55.378Z,40
2022-12-01T12:36:55.620Z,41.3
2022-12-01T12:39:55.867Z,42.8
2022-12-01T12:42:51.076Z,44.2
2022-12-01T12:45:51.376Z,45.6
2022-12-01T12:49:12.050Z,46.5
2022-12-01T12:51:51.757Z,46.8
2022-12-01T12:54:52.008Z,45.6
2022-12-01T12:57:52.225Z,44.6
2022-12-01T13:00:52.497Z,42.9
2022-12-01T13:03:52.693Z,41.1
2022-12-01T13:06:52.957Z,39.4
2022-12-01T13:09:53.169Z,37.9
2022-12-01T13:12:53.378Z,36.5
2022-12-01T13:15:53.644Z,35.3
2022-12-01T13:18:53.887Z,34.1
2022-12-01T13:21:54.122Z,32.6
2022-12-01T13:24:54.324Z,31.2
2022-12-01T13:27:54.523Z,29.2
2022-12-01T13:30:54.838Z,26.8
2022-12-01T13:33:55.022Z,24.3
2022-12-01T13:36:55.227Z,22.1
2022-12-01T13:39:55.463Z,19.9
2022-12-01T13:42:50.724Z,18
2022-12-01T13:45:50.913Z,16.4
2022-12-01T13:48:51.216Z,14.9
2022-12-01T13:51:51.388Z,14
2022-12-01T13:54:51.645Z,13.4
2022-12-01T13:57:51.869Z,12.9
2022-12-01T14:00:52.099Z,12.6
2022-12-01T14:03:52.276Z,12.3
2022-12-01T14:06:52.509Z,12.2
2022-12-01T14:09:52.742Z,12.1
2022-12-01T14:12:52.947Z,12
2022-12-01T14:15:53.221Z,11.7
2022-12-01T14:18:53.406Z,11
2022-12-01T14:21:53.703Z,10.5
2022-12-01T14:24:53.904Z,10
2022-12-01T14:27:54.100Z,9.5
2022-12-01T14:30:54.502Z,8.9
2022-12-01T14:33:54.558Z,8
2022-12-01T14:36:54.822Z,7.2
2022-12-01T14:39:55.054Z,6.4
2022-12-01T14:42:55.294Z,5.7
2022-12-01T14:45:55.483Z,5.2
2022-12-01T14:48:55.812Z,4.6
2022-12-01T14:51:50.945Z,4.1
2022-12-01T14:54:51.421Z,3.4
2022-12-01T14:57:51.403Z,3
2022-12-01T15:00:51.674Z,2.5
2022-12-01T15:03:51.892Z,2.1
2022-12-01T15:06:52.106Z,1.8
2022-12-01T15:09:52.358Z,1.8
2022-12-01T15:12:52.585Z,1.8
2022-12-01T15:15:52.816Z,1.8
2022-12-01T15:18:53.048Z,1.8
2022-12-01T15:21:53.280Z,1.8
2022-12-01T15:24:53.485Z,1.8
2022-12-01T15:27:53.733Z,1.8
2022-12-01T15:30:53.940Z,1.8
2022-12-01T15:33:54.150Z,1.8
2022-12-01T15:36:54.459Z,1.8
2022-12-01T15:40:00.884Z,1.8
2022-12-01T15:42:54.870Z,1.8
2022-12-01T15:45:55.205Z,1.8
2022-12-01T15:48:55.329Z,1.8
2022-12-01T15:51:55.580Z,1.8
2022-12-01T15:54:51.170Z,1.8
2022-12-01T15:57:56.073Z,1.8
2022-12-01T16:00:56.277Z,1.8
2022-12-01T16:03:56.536Z,1.8
2022-12-01T16:06:51.712Z,1.8
2022-12-01T22:00:53.959Z,3.9
2022-12-01T22:03:57.818Z,6
2022-12-01T22:06:54.388Z,8.2
2022-12-01T22:09:54.604Z,10.4
2022-12-01T22:12:54.835Z,10.4
2022-12-01T22:15:55.160Z,10.4
2022-12-01T22:18:55.359Z,10.4
2022-12-01T22:21:55.502Z,10.4
2022-12-01T22:24:55.762Z,10.4
2022-12-01T22:27:50.968Z,10.4
2022-12-01T22:31:01.420Z,10.4
2022-12-01T22:33:51.427Z,10.4
2022-12-01T22:36:51.688Z,10.4
2022-12-01T22:39:51.871Z,10.4
2022-12-01T22:42:52.161Z,10.4
2022-12-01T22:45:52.379Z,10.4
2022-12-01T22:48:52.640Z,10.4
2022-12-01T22:51:52.834Z,10.4
2022-12-01T22:54:53.371Z,10.4
2022-12-01T22:57:53.298Z,10.4
2022-12-01T23:00:53.645Z,10.4
2022-12-01T23:03:53.780Z,10.4
2022-12-01T23:06:54.021Z,10.4
2022-12-01T23:09:54.221Z,10.4
